createdAt,value
2019-05-10T00:01:26.383Z,99.90
2019-05-10T00:04:15.036Z,99.90
2019-05-10T00:07:04.532Z,99.90
2019-05-10T00:09:34.543Z,99.90
2019-05-10T00:12:13.918Z,99.90
2019-05-10T00:14:48.128Z,99.90
2019-05-10T00:17:20.949Z,99.90
2019-05-10T00:19:52.737Z,99.90
2019-05-10T00:22:49.052Z,99.90
2019-05-10T00:25:20.414Z,99.90
2019-05-10T00:27:52.043Z,99.90
2019-05-10T00:30:23.044Z,99.90
2019-05-10T00:32:53.930Z,99.90
2019-05-10T00:35:25.010Z,99.90
2019-05-10T01:03:09.787Z,99.90
2019-05-10T01:05:41.150Z,99.90
2019-05-10T01:08:12.596Z,99.90
2019-05-10T01:10:44.244Z,99.90
2019-05-10T01:13:15.512Z,99.90
2019-05-10T01:15:46.899Z,99.90
2019-05-10T01:18:18.700Z,99.90
2019-05-10T01:20:50.383Z,99.90
2019-05-10T01:23:22.330Z,99.90
2019-05-10T01:25:53.301Z,99.90
2019-05-10T01:28:24.978Z,99.90
2019-05-10T01:30:56.490Z,99.90
2019-05-10T01:33:29.793Z,99.90
2019-05-10T01:36:12.558Z,99.90
2019-05-10T01:38:44.081Z,99.90
2019-05-10T01:41:15.891Z,99.90
2019-05-10T01:43:47.581Z,99.90
2019-05-10T01:46:18.989Z,99.90
2019-05-10T01:49:01.688Z,99.90
2019-05-10T01:51:33.033Z,99.90
2019-05-10T01:54:04.656Z,99.90
2019-05-10T01:56:35.985Z,99.90
2019-05-10T01:59:07.230Z,99.90
2019-05-10T02:01:39.213Z,99.90
2019-05-10T02:04:10.867Z,99.90
2019-05-10T02:06:41.787Z,99.90
2019-05-10T02:09:12.833Z,99.90
2019-05-10T02:11:44.191Z,99.90
2019-05-10T02:14:15.552Z,99.90
2019-05-10T02:16:46.593Z,99.90
2019-05-10T02:19:26.276Z,99.90
2019-05-10T02:21:57.645Z,99.90
2019-05-10T02:24:28.629Z,99.90
2019-05-10T02:27:00.619Z,99.90
2019-05-10T02:29:31.215Z,99.90
2019-05-10T02:32:01.880Z,99.90
2019-05-10T02:34:33.379Z,99.90
2019-05-10T02:37:04.247Z,99.90
2019-05-10T02:39:35.573Z,99.90
2019-05-10T02:42:06.819Z,99.90
2019-05-10T02:44:38.364Z,99.90
2019-05-10T02:47:09.684Z,99.90
2019-05-10T02:49:41.052Z,99.90
2019-05-10T02:52:12.095Z,99.90
2019-05-10T02:54:44.996Z,99.90
2019-05-10T02:57:15.887Z,99.90
2019-05-10T02:59:48.457Z,99.90
2019-05-10T03:02:20.967Z,99.90
2019-05-10T03:04:54.363Z,99.90
2019-05-10T03:07:27.692Z,99.90
2019-05-10T03:10:01.446Z,99.90
2019-05-10T03:12:32.430Z,99.90
2019-05-10T03:15:05.071Z,99.90
2019-05-10T03:17:40.371Z,99.90
2019-05-10T03:20:13.217Z,99.90
2019-05-10T03:22:45.696Z,99.90
2019-05-10T03:25:16.823Z,99.90
2019-05-10T03:27:48.051Z,99.90
2019-05-10T03:30:19.300Z,99.90
2019-05-10T03:32:51.465Z,99.90
2019-05-10T03:35:22.825Z,99.90
2019-05-10T03:37:54.536Z,99.90
2019-05-10T03:40:26.136Z,99.90
2019-05-10T03:42:56.696Z,99.90
2019-05-10T03:45:28.010Z,99.90
2019-05-10T03:48:22.240Z,99.90
2019-05-10T03:50:53.580Z,99.90
2019-05-10T03:53:24.462Z,99.90
2019-05-10T03:55:55.146Z,99.90
2019-05-10T03:58:26.890Z,99.90
2019-05-10T04:00:58.617Z,99.90
2019-05-10T04:03:30.262Z,99.90
2019-05-10T04:06:01.627Z,99.90
2019-05-10T04:08:32.661Z,99.90
2019-05-10T04:11:03.591Z,99.90
2019-05-10T04:13:34.951Z,99.90
2019-05-10T04:16:16.838Z,99.90
2019-05-10T04:18:47.960Z,99.90
2019-05-10T04:21:18.952Z,99.90
2019-05-10T04:24:01.243Z,99.90
2019-05-10T04:26:35.062Z,99.90
2019-05-10T04:29:06.357Z,99.90
2019-05-10T04:31:39.624Z,99.90
2019-05-10T04:34:10.630Z,99.90
2019-05-10T04:36:45.855Z,99.90
2019-05-10T04:39:17.540Z,99.90
2019-05-10T04:41:58.258Z,99.90
2019-05-10T04:44:29.947Z,99.90
2019-05-10T04:47:12.161Z,99.90
2019-05-10T04:49:43.175Z,99.90
2019-05-10T04:52:14.519Z,99.90
2019-05-10T04:54:46.189Z,99.90
2019-05-10T04:57:17.792Z,99.90
2019-05-10T04:59:48.723Z,99.90
2019-05-10T05:02:22.183Z,99.90
2019-05-10T05:04:54.136Z,99.90
2019-05-10T05:07:25.999Z,99.90
2019-05-10T05:09:57.355Z,99.90
2019-05-10T05:12:28.351Z,99.90
2019-05-10T05:14:59.267Z,99.90
2019-05-10T05:17:30.820Z,99.90
2019-05-10T05:20:02.473Z,99.90
2019-05-10T05:22:33.750Z,99.90
2019-05-10T05:25:04.975Z,99.90
2019-05-10T05:27:35.759Z,99.90
2019-05-10T05:30:06.705Z,99.90
2019-05-10T05:32:43.935Z,99.90
2019-05-10T05:35:15.272Z,99.90
2019-05-10T05:37:44.840Z,99.90
2019-05-10T05:40:16.899Z,99.90
2019-05-10T05:43:02.573Z,99.90
2019-05-10T05:45:33.936Z,99.90
2019-05-10T05:48:04.767Z,99.90
2019-05-10T05:50:36.173Z,99.90
2019-05-10T05:53:07.577Z,99.90
2019-05-10T05:55:39.141Z,99.90
2019-05-10T05:58:25.310Z,99.90
2019-05-10T06:00:44.676Z,99.90
2019-05-10T06:03:19.482Z,99.90
2019-05-10T06:05:49.540Z,99.90
2019-05-10T06:08:23.656Z,99.90
2019-05-10T06:10:57.947Z,99.90
2019-05-10T06:13:30.413Z,99.90
2019-05-10T06:16:00.797Z,99.90
2019-05-10T06:18:33.054Z,99.90
2019-05-10T06:21:04.196Z,99.90
2019-05-10T06:23:36.867Z,99.90
2019-05-10T06:26:21.422Z,99.90
2019-05-10T06:28:58.585Z,99.90
2019-05-10T06:31:14.418Z,99.90
2019-05-10T06:33:46.844Z,99.90
2019-05-10T06:36:18.014Z,99.90
2019-05-10T06:38:49.451Z,99.90
2019-05-10T06:41:21.109Z,99.90
2019-05-10T06:43:53.096Z,99.90
2019-05-10T06:46:29.684Z,99.90
2019-05-10T06:49:07.236Z,99.90
2019-05-10T06:51:30.934Z,99.90
2019-05-10T06:54:01.867Z,99.90
2019-05-10T06:56:33.116Z,99.90
2019-05-10T06:59:13.055Z,99.90
2019-05-10T07:01:44.488Z,99.90
2019-05-10T07:04:10.628Z,99.90
2019-05-10T07:06:41.405Z,99.90
2019-05-10T07:09:13.139Z,99.90
2019-05-10T07:11:44.596Z,99.90
2019-05-10T07:14:15.913Z,99.90
2019-05-10T07:16:46.952Z,99.90
2019-05-10T07:19:17.839Z,99.90
2019-05-10T07:21:51.208Z,99.90
2019-05-10T07:24:25.458Z,99.90
2019-05-10T07:26:56.650Z,99.90
2019-05-10T07:29:30.124Z,99.90
2019-05-10T07:32:00.675Z,99.90
2019-05-10T07:34:32.119Z,99.90
2019-05-10T07:37:03.386Z,99.90
2019-05-10T07:39:41.125Z,99.90
2019-05-10T07:42:12.771Z,99.90
2019-05-10T07:44:46.833Z,99.90
2019-05-10T07:47:17.105Z,99.90
2019-05-10T07:49:48.464Z,99.90
2019-05-10T07:52:19.825Z,99.90
2019-05-10T07:54:52.476Z,99.90
2019-05-10T07:57:26.811Z,99.90
2019-05-10T08:00:03.081Z,99.90
2019-05-10T08:02:30.636Z,99.90
2019-05-10T08:05:04.818Z,99.90
2019-05-10T08:07:35.520Z,99.90
2019-05-10T08:10:08.519Z,99.90
2019-05-10T08:12:41.466Z,99.90
2019-05-10T08:15:11.865Z,99.90
2019-05-10T08:17:45.487Z,99.90
2019-05-10T08:20:29.779Z,99.90
2019-05-10T08:22:48.574Z,99.90
2019-05-10T08:25:19.268Z,99.90
2019-05-10T08:27:55.132Z,99.90
2019-05-10T08:30:42.828Z,99.90
2019-05-10T08:33:14.376Z,99.90
2019-05-10T08:35:46.403Z,99.90
2019-05-10T08:38:18.541Z,99.90
2019-05-10T08:40:49.205Z,99.90
2019-05-10T08:43:21.848Z,99.90
2019-05-10T08:46:13.799Z,99.90
2019-05-10T08:48:50.241Z,99.90
2019-05-10T08:51:17.495Z,99.90
2019-05-10T08:53:53.413Z,99.90
2019-05-10T08:56:24.241Z,99.90
2019-05-10T08:58:56.151Z,99.90
2019-05-10T09:01:30.639Z,99.90
2019-05-10T09:04:06.208Z,99.90
2019-05-10T09:06:33.662Z,99.90
2019-05-10T09:09:08.432Z,99.90
2019-05-10T09:11:43.963Z,99.90
2019-05-10T09:14:19.831Z,99.90
2019-05-10T09:16:56.345Z,99.90
2019-05-10T09:19:27.754Z,99.90
2019-05-10T09:21:55.047Z,99.90
2019-05-10T09:24:25.795Z,99.90
2019-05-10T09:26:57.291Z,99.90
2019-05-10T09:29:35.110Z,99.90
2019-05-10T09:32:06.320Z,99.90
2019-05-10T09:34:35.086Z,99.90
2019-05-10T09:37:08.097Z,99.90
2019-05-10T09:39:42.318Z,99.90
2019-05-10T09:42:24.950Z,96.80
2019-05-10T09:44:47.130Z,92.10
2019-05-10T09:47:18.613Z,92.30
2019-05-10T09:49:56.649Z,90.80
2019-05-10T09:52:23.122Z,91.00
2019-05-10T09:54:56.514Z,91.50
2019-05-10T09:57:27.850Z,93.30
2019-05-10T09:59:59.013Z,94.20
2019-05-10T10:02:33.899Z,96.10
2019-05-10T10:05:03.219Z,96.70
2019-05-10T10:07:34.280Z,96.70
2019-05-10T10:10:07.366Z,96.90
2019-05-10T10:12:38.625Z,96.60
2019-05-10T10:15:13.987Z,94.80
2019-05-10T10:17:43.349Z,94.90
2019-05-10T10:20:14.198Z,95.30
2019-05-10T10:22:56.564Z,95.50
2019-05-10T10:25:30.029Z,93.80
2019-05-10T10:28:01.047Z,93.10
2019-05-10T10:30:32.093Z,92.90
2019-05-10T10:33:05.871Z,93.40
2019-05-10T10:35:37.774Z,92.20
2019-05-10T10:38:09.032Z,90.90
2019-05-10T10:40:44.534Z,89.30
2019-05-10T10:43:13.127Z,88.80
2019-05-10T10:45:53.301Z,88.80
2019-05-10T10:48:24.830Z,80.40
2019-05-10T10:50:58.483Z,83.90
2019-05-10T10:53:30.743Z,83.40
2019-05-10T10:56:03.805Z,86.40
2019-05-10T10:58:35.044Z,86.80
2019-05-10T11:01:10.630Z,83.60
2019-05-10T11:03:39.678Z,81.30
2019-05-10T11:06:11.437Z,83.00
2019-05-10T11:08:43.177Z,80.90
2019-05-10T11:11:14.629Z,80.00
2019-05-10T11:13:57.990Z,80.30
2019-05-10T11:16:27.991Z,76.20
2019-05-10T11:19:03.640Z,76.40
2019-05-10T11:21:33.412Z,78.10
2019-05-10T11:24:04.274Z,76.50
2019-05-10T11:26:37.025Z,76.20
2019-05-10T11:29:07.702Z,74.20
2019-05-10T11:31:41.419Z,74.50
2019-05-10T11:34:12.497Z,72.30
2019-05-10T11:36:46.049Z,69.00
2019-05-10T11:39:26.035Z,69.80
2019-05-10T11:41:53.109Z,68.60
2019-05-10T11:44:25.729Z,66.40
2019-05-10T11:46:56.120Z,67.40
2019-05-10T11:49:27.127Z,63.20
2019-05-10T11:51:58.858Z,58.50
2019-05-10T11:54:31.872Z,61.10
2019-05-10T11:57:09.778Z,62.20
2019-05-10T11:59:38.610Z,63.80
2019-05-10T12:02:10.446Z,61.90
2019-05-10T12:04:43.399Z,60.20
2019-05-10T12:07:15.233Z,59.90
2019-05-10T12:09:55.719Z,61.90
2019-05-10T12:12:30.634Z,64.50
2019-05-10T12:14:54.141Z,66.70
2019-05-10T12:17:25.542Z,69.10
2019-05-10T12:19:56.857Z,69.50
2019-05-10T12:22:38.345Z,69.30
2019-05-10T12:25:27.116Z,72.30
2019-05-10T12:27:44.210Z,73.90
2019-05-10T12:30:06.650Z,76.20
2019-05-10T12:32:54.643Z,76.40
2019-05-10T12:35:11.822Z,78.40
2019-05-10T12:37:46.357Z,77.60
2019-05-10T12:40:25.495Z,78.10
2019-05-10T12:42:57.283Z,74.60
2019-05-10T12:45:28.158Z,72.90
2019-05-10T12:48:01.313Z,69.30
2019-05-10T12:50:32.290Z,67.20
2019-05-10T12:53:13.842Z,63.90
2019-05-10T12:55:36.102Z,61.50
2019-05-10T12:58:07.043Z,53.50
2019-05-10T13:00:37.683Z,52.10
2019-05-10T13:03:12.674Z,51.20
2019-05-10T13:05:52.106Z,50.50
2019-05-10T13:08:13.766Z,50.50
2019-05-10T13:10:49.114Z,51.20
2019-05-10T13:13:23.699Z,49.40
2019-05-10T13:15:50.709Z,50.40
2019-05-10T13:18:23.127Z,51.70
2019-05-10T13:20:55.154Z,51.50
2019-05-10T13:23:26.425Z,54.30
2019-05-10T13:25:57.438Z,57.70
2019-05-10T13:28:28.786Z,59.10
2019-05-10T13:31:05.594Z,56.90
2019-05-10T13:33:40.927Z,55.80
2019-05-10T13:36:06.614Z,53.90
2019-05-10T13:38:43.182Z,54.90
2019-05-10T13:41:11.166Z,49.10
2019-05-10T13:43:42.179Z,48.90
2019-05-10T13:46:13.147Z,49.30
2019-05-10T13:48:44.818Z,52.50
2019-05-10T13:51:15.837Z,53.00
2019-05-10T13:53:47.549Z,49.70
2019-05-10T13:56:17.902Z,50.40
2019-05-10T13:58:49.256Z,47.60
2019-05-10T14:01:20.551Z,47.00
2019-05-10T14:03:59.869Z,52.10
2019-05-10T14:06:24.970Z,55.90
2019-05-10T14:08:56.359Z,56.80
2019-05-10T14:11:27.331Z,56.20
2019-05-10T14:13:58.686Z,55.80
2019-05-10T14:16:29.398Z,56.60
2019-05-10T14:19:00.029Z,58.30
2019-05-10T14:21:33.435Z,59.40
2019-05-10T14:24:09.107Z,60.10
2019-05-10T14:26:38.243Z,60.60
2019-05-10T14:29:11.128Z,60.30
2019-05-10T14:31:41.607Z,59.40
2019-05-10T14:34:15.350Z,59.00
2019-05-10T14:36:46.033Z,57.10
2019-05-10T14:39:17.186Z,59.00
2019-05-10T14:41:50.989Z,57.10
2019-05-10T14:44:22.443Z,57.30
2019-05-10T14:46:54.035Z,56.90
2019-05-10T14:49:25.435Z,56.40
2019-05-10T14:51:59.388Z,55.10
2019-05-10T14:54:42.517Z,53.90
2019-05-10T14:57:02.759Z,53.30
2019-05-10T14:59:33.526Z,50.90
2019-05-10T15:02:05.169Z,52.20
2019-05-10T15:04:44.949Z,52.90
2019-05-10T15:07:08.534Z,55.10
2019-05-10T15:09:41.455Z,53.70
2019-05-10T15:12:16.333Z,51.40
2019-05-10T15:14:45.486Z,49.10
2019-05-10T15:17:19.764Z,47.60
2019-05-10T15:19:57.861Z,47.70
2019-05-10T15:22:24.482Z,46.00
2019-05-10T15:24:56.290Z,45.20
2019-05-10T15:27:27.938Z,47.50
2019-05-10T15:30:05.299Z,47.10
2019-05-10T15:32:32.176Z,45.00
2019-05-10T15:35:06.914Z,49.30
2019-05-10T15:37:40.636Z,52.10
2019-05-10T15:40:12.977Z,52.60
2019-05-10T15:42:43.916Z,50.20
2019-05-10T15:45:18.903Z,48.80
2019-05-10T15:47:52.018Z,51.60
2019-05-10T15:50:21.332Z,54.40
2019-05-10T15:52:53.338Z,55.30
2019-05-10T15:55:28.239Z,56.80
2019-05-10T15:58:00.239Z,57.00
2019-05-10T16:00:39.357Z,58.70
2019-05-10T16:03:04.475Z,60.80
2019-05-10T16:05:43.614Z,60.50
2019-05-10T16:08:13.527Z,58.70
2019-05-10T16:10:43.403Z,57.50
2019-05-10T16:13:22.829Z,57.80
2019-05-10T16:15:51.572Z,57.50
2019-05-10T16:18:20.363Z,55.50
2019-05-10T16:20:51.641Z,54.30
2019-05-10T16:23:23.308Z,53.70
2019-05-10T16:25:54.931Z,53.60
2019-05-10T16:28:26.177Z,53.40
2019-05-10T16:30:57.884Z,53.70
2019-05-10T16:33:29.523Z,54.40
2019-05-10T16:36:00.664Z,55.20
2019-05-10T16:38:31.603Z,53.90
2019-05-10T16:41:07.289Z,53.50
2019-05-10T16:43:38.266Z,52.70
2019-05-10T16:46:09.615Z,51.90
2019-05-10T16:48:41.412Z,51.20
2019-05-10T16:51:13.101Z,52.50
2019-05-10T16:53:45.963Z,50.30
2019-05-10T16:56:18.711Z,51.20
2019-05-10T16:58:53.071Z,52.80
2019-05-10T17:01:25.712Z,55.30
2019-05-10T17:03:59.864Z,57.20
2019-05-10T17:06:29.628Z,58.50
2019-05-10T17:09:01.555Z,60.20
2019-05-10T17:11:32.837Z,61.00
2019-05-10T17:14:03.782Z,62.20
2019-05-10T17:16:34.602Z,62.10
2019-05-10T17:19:07.653Z,61.30
2019-05-10T17:21:38.911Z,62.80
2019-05-10T17:24:09.813Z,64.30
2019-05-10T17:26:41.421Z,65.90
2019-05-10T17:29:14.601Z,65.10
2019-05-10T17:31:46.174Z,66.70
2019-05-10T17:34:27.709Z,67.30
2019-05-10T17:36:51.686Z,67.40
2019-05-10T17:39:26.076Z,68.30
2019-05-10T17:42:02.555Z,68.80
2019-05-10T17:44:30.987Z,68.40
2019-05-10T17:47:02.572Z,68.00
2019-05-10T17:49:33.820Z,68.80
2019-05-10T17:52:04.831Z,70.10
2019-05-10T17:54:39.138Z,69.70
2019-05-10T17:57:10.767Z,70.90
2019-05-10T17:59:47.005Z,71.10
2019-05-10T18:02:16.395Z,72.90
2019-05-10T18:04:48.463Z,73.20
2019-05-10T18:07:19.503Z,74.20
2019-05-10T18:09:50.523Z,74.50
2019-05-10T18:12:26.609Z,73.90
2019-05-10T18:14:55.757Z,76.00
2019-05-10T18:17:28.248Z,80.20
2019-05-10T18:20:02.461Z,79.40
2019-05-10T18:22:41.768Z,80.10
2019-05-10T18:25:04.978Z,81.10
2019-05-10T18:27:36.608Z,81.80
2019-05-10T18:30:08.142Z,81.40
2019-05-10T18:32:39.270Z,81.70
2019-05-10T18:35:14.442Z,81.60
2019-05-10T18:37:43.541Z,83.30
2019-05-10T18:40:14.875Z,83.70
2019-05-10T18:42:46.546Z,82.20
2019-05-10T18:45:18.280Z,82.30
2019-05-10T18:47:49.966Z,82.50
2019-05-10T18:50:21.371Z,82.70
2019-05-10T18:52:52.656Z,83.80
2019-05-10T18:55:23.271Z,85.00
2019-05-10T18:57:54.604Z,85.50
2019-05-10T19:00:25.656Z,86.20
2019-05-10T19:02:57.252Z,88.70
2019-05-10T19:05:31.575Z,89.50
2019-05-10T19:08:05.448Z,90.40
2019-05-10T19:10:32.981Z,91.00
2019-05-10T19:13:05.634Z,91.60
2019-05-10T19:15:37.124Z,92.60
2019-05-10T19:18:08.458Z,93.50
2019-05-10T19:20:40.072Z,94.50
2019-05-10T19:23:13.236Z,96.30
2019-05-10T19:25:45.545Z,98.10
2019-05-10T19:28:21.068Z,99.90
2019-05-10T19:30:52.802Z,99.90
2019-05-10T19:33:23.122Z,99.90
2019-05-10T19:35:54.166Z,99.90
2019-05-10T19:38:25.533Z,99.90
2019-05-10T19:40:57.193Z,99.90
2019-05-10T19:43:28.305Z,99.90
2019-05-10T19:45:59.872Z,99.90
2019-05-10T19:48:35.382Z,99.90
2019-05-10T19:51:09.501Z,99.90
2019-05-10T19:53:42.333Z,99.90
2019-05-10T19:56:11.173Z,99.90
2019-05-10T19:58:43.161Z,99.90
2019-05-10T20:01:14.104Z,99.90
2019-05-10T20:03:46.115Z,99.90
2019-05-10T20:06:17.052Z,99.90
2019-05-10T20:08:48.786Z,99.90
2019-05-10T20:11:19.804Z,99.90
2019-05-10T20:13:50.800Z,99.90
2019-05-10T20:16:22.382Z,99.90
2019-05-10T20:18:54.012Z,99.90
2019-05-10T20:21:24.772Z,99.90
2019-05-10T20:23:56.476Z,99.90
2019-05-10T20:26:31.572Z,99.90
2019-05-10T20:29:03.224Z,99.90
2019-05-10T20:31:34.214Z,99.90
2019-05-10T20:34:05.138Z,99.90
2019-05-10T20:36:37.127Z,99.90
2019-05-10T20:39:08.444Z,99.90
2019-05-10T20:41:40.076Z,99.90
2019-05-10T20:44:11.090Z,99.90
2019-05-10T20:46:42.765Z,99.90
2019-05-10T20:49:14.700Z,99.90
2019-05-10T20:51:45.768Z,99.90
2019-05-10T20:54:17.469Z,99.90
2019-05-10T20:56:48.784Z,99.90
2019-05-10T20:59:20.166Z,99.90
2019-05-10T21:01:51.497Z,99.90
2019-05-10T21:04:22.839Z,99.90
2019-05-10T21:06:54.468Z,99.90
2019-05-10T21:09:26.060Z,99.90
2019-05-10T21:11:57.912Z,99.90
2019-05-10T21:14:29.890Z,99.90
2019-05-10T21:17:01.455Z,99.90
2019-05-10T21:19:33.282Z,99.90
2019-05-10T21:22:04.320Z,99.90
2019-05-10T21:24:35.569Z,99.90
2019-05-10T21:27:07.274Z,99.90
2019-05-10T21:29:39.860Z,99.90
2019-05-10T21:32:11.087Z,99.90
2019-05-10T21:34:42.538Z,99.90
2019-05-10T21:37:13.541Z,99.90
2019-05-10T21:39:44.959Z,99.90
2019-05-10T21:42:16.263Z,99.90
2019-05-10T21:44:48.306Z,99.90
2019-05-10T21:47:19.633Z,99.90
2019-05-10T21:49:51.386Z,99.90
2019-05-10T21:52:23.102Z,99.90
2019-05-10T21:54:54.409Z,99.90
2019-05-10T21:57:26.773Z,99.90
2019-05-10T21:59:59.602Z,99.90
2019-05-10T22:02:30.973Z,99.90
2019-05-10T22:05:02.378Z,99.90
2019-05-10T22:07:34.051Z,99.90
2019-05-10T22:10:05.365Z,99.90
2019-05-10T22:12:37.019Z,99.90
2019-05-10T22:15:09.538Z,99.90
2019-05-10T22:17:40.537Z,99.90
2019-05-10T22:20:11.484Z,99.90
2019-05-10T22:22:43.064Z,99.90
2019-05-10T22:25:14.079Z,99.90
2019-05-10T22:27:45.317Z,99.90
2019-05-10T22:30:16.373Z,99.90
2019-05-10T22:32:47.397Z,99.90
2019-05-10T22:35:18.441Z,99.90
2019-05-10T22:37:50.056Z,99.90
2019-05-10T22:40:21.709Z,99.90
2019-05-10T22:42:52.360Z,99.90
2019-05-10T22:45:23.517Z,99.90
2019-05-10T22:47:54.469Z,99.90
2019-05-10T22:50:25.840Z,99.90
2019-05-10T22:52:56.755Z,99.90
2019-05-10T22:55:28.152Z,99.90
2019-05-10T22:57:59.826Z,99.90
2019-05-10T23:00:30.831Z,99.90
2019-05-10T23:03:02.162Z,99.90
2019-05-10T23:05:33.364Z,99.90
2019-05-10T23:08:04.660Z,99.90
2019-05-10T23:10:35.689Z,99.90
2019-05-10T23:13:06.693Z,99.90
2019-05-10T23:15:38.171Z,99.90
2019-05-10T23:18:09.989Z,99.90
2019-05-10T23:20:41.572Z,99.90
2019-05-10T23:23:13.214Z,99.90
2019-05-10T23:25:45.147Z,99.90
2019-05-10T23:28:16.755Z,99.90
2019-05-10T23:30:48.282Z,99.90
2019-05-10T23:33:19.682Z,99.90
2019-05-10T23:35:51.150Z,99.90
2019-05-10T23:38:22.710Z,99.90
2019-05-10T23:40:54.010Z,99.90
2019-05-10T23:43:25.134Z,99.90
2019-05-10T23:45:56.472Z,99.90
2019-05-10T23:48:28.355Z,99.90
2019-05-10T23:50:59.678Z,99.90
2019-05-10T23:53:30.946Z,99.90
2019-05-10T23:56:02.600Z,99.90
2019-05-10T23:58:34.126Z,99.90
